sensor_id;sensor_type;location;lat;lon;timestamp;temperature;humidity
77829;DHT22;67019;51.034;3.728;2023-02-10T00:01:24;3.90;94.90
77829;DHT22;67019;51.034;3.728;2023-02-10T00:03:52;3.40;95.50
77829;DHT22;67019;51.034;3.728;2023-02-10T00:06:22;3.70;96.20
77829;DHT22;67019;51.034;3.728;2023-02-10T00:08:52;3.60;94.30
77829;DHT22;67019;51.034;3.728;2023-02-10T00:11:20;3.60;94.10
77829;DHT22;67019;51.034;3.728;2023-02-10T00:13:49;3.60;94.10
77829;DHT22;67019;51.034;3.728;2023-02-10T00:16:17;3.60;93.80
77829;DHT22;67019;51.034;3.728;2023-02-10T00:18:44;3.50;93.80
77829;DHT22;67019;51.034;3.728;2023-02-10T00:21:16;3.40;94.10
77829;DHT22;67019;51.034;3.728;2023-02-10T00:23:44;3.50;93.70
77829;DHT22;67019;51.034;3.728;2023-02-10T00:26:12;3.40;93.80
77829;DHT22;67019;51.034;3.728;2023-02-10T00:28:41;3.40;93.90
77829;DHT22;67019;51.034;3.728;2023-02-10T00:31:12;3.10;95.10
77829;DHT22;67019;51.034;3.728;2023-02-10T00:33:38;3.00;95.70
77829;DHT22;67019;51.034;3.728;2023-02-10T00:36:09;3.20;95.90
77829;DHT22;67019;51.034;3.728;2023-02-10T00:38:37;3.30;95.50
77829;DHT22;67019;51.034;3.728;2023-02-10T00:41:07;3.30;95.90
77829;DHT22;67019;51.034;3.728;2023-02-10T00:43:35;3.50;95.20
77829;DHT22;67019;51.034;3.728;2023-02-10T00:46:03;3.80;94.40
77829;DHT22;67019;51.034;3.728;2023-02-10T00:48:31;4.00;94.20
77829;DHT22;67019;51.034;3.728;2023-02-10T00:50:59;3.90;93.90
77829;DHT22;67019;51.034;3.728;2023-02-10T00:53:26;3.80;94.10
77829;DHT22;67019;51.034;3.728;2023-02-10T00:55:54;3.80;94.60
77829;DHT22;67019;51.034;3.728;2023-02-10T00:58:22;3.90;94.50
77829;DHT22;67019;51.034;3.728;2023-02-10T01:00:50;4.30;93.40
77829;DHT22;67019;51.034;3.728;2023-02-10T01:03:17;4.50;92.90
77829;DHT22;67019;51.034;3.728;2023-02-10T01:05:45;4.40;92.60
77829;DHT22;67019;51.034;3.728;2023-02-10T01:08:14;4.20;92.90
77829;DHT22;67019;51.034;3.728;2023-02-10T01:10:41;4.20;93.30
77829;DHT22;67019;51.034;3.728;2023-02-10T01:13:11;4.30;92.90
77829;DHT22;67019;51.034;3.728;2023-02-10T01:15:44;4.40;92.80
77829;DHT22;67019;51.034;3.728;2023-02-10T01:18:13;4.60;92.20
77829;DHT22;67019;51.034;3.728;2023-02-10T01:20:42;4.80;91.80
77829;DHT22;67019;51.034;3.728;2023-02-10T01:23:10;4.80;91.80
77829;DHT22;67019;51.034;3.728;2023-02-10T01:25:38;5.00;91.50
77829;DHT22;67019;51.034;3.728;2023-02-10T01:28:06;4.80;91.70
77829;DHT22;67019;51.034;3.728;2023-02-10T01:30:34;4.80;91.60
77829;DHT22;67019;51.034;3.728;2023-02-10T01:33:02;4.80;91.20
77829;DHT22;67019;51.034;3.728;2023-02-10T01:35:29;4.60;91.50
77829;DHT22;67019;51.034;3.728;2023-02-10T01:37:57;4.40;91.60
77829;DHT22;67019;51.034;3.728;2023-02-10T01:40:25;4.30;92.00
77829;DHT22;67019;51.034;3.728;2023-02-10T01:42:53;4.30;92.50
77829;DHT22;67019;51.034;3.728;2023-02-10T01:45:29;4.10;92.50
77829;DHT22;67019;51.034;3.728;2023-02-10T01:47:58;4.30;91.90
77829;DHT22;67019;51.034;3.728;2023-02-10T01:50:29;4.30;92.20
77829;DHT22;67019;51.034;3.728;2023-02-10T01:52:57;4.20;91.90
77829;DHT22;67019;51.034;3.728;2023-02-10T01:55:28;3.90;92.00
77829;DHT22;67019;51.034;3.728;2023-02-10T01:57:56;3.60;92.30
77829;DHT22;67019;51.034;3.728;2023-02-10T02:00:24;3.30;93.00
77829;DHT22;67019;51.034;3.728;2023-02-10T02:02:52;3.40;93.00
77829;DHT22;67019;51.034;3.728;2023-02-10T02:05:29;3.50;93.10
77829;DHT22;67019;51.034;3.728;2023-02-10T02:07:59;3.60;92.30
77829;DHT22;67019;51.034;3.728;2023-02-10T02:10:32;3.50;92.60
77829;DHT22;67019;51.034;3.728;2023-02-10T02:13:04;4.30;92.00
77829;DHT22;67019;51.034;3.728;2023-02-10T02:15:35;3.20;92.40
77829;DHT22;67019;51.034;3.728;2023-02-10T02:23:28;3.00;92.80
77829;DHT22;67019;51.034;3.728;2023-02-10T02:26:04;2.80;92.70
77829;DHT22;67019;51.034;3.728;2023-02-10T02:34:01;2.60;93.30
77829;DHT22;67019;51.034;3.728;2023-02-10T02:36:33;2.60;93.10
77829;DHT22;67019;51.034;3.728;2023-02-10T02:39:02;2.40;93.40
77829;DHT22;67019;51.034;3.728;2023-02-10T02:41:31;2.40;93.70
77829;DHT22;67019;51.034;3.728;2023-02-10T02:44:00;2.30;94.00
77829;DHT22;67019;51.034;3.728;2023-02-10T02:54:30;2.90;92.80
77829;DHT22;67019;51.034;3.728;2023-02-10T02:57:18;2.80;92.80
77829;DHT22;67019;51.034;3.728;2023-02-10T02:59:55;2.50;92.70
77829;DHT22;67019;51.034;3.728;2023-02-10T03:02:19;2.30;93.20
77829;DHT22;67019;51.034;3.728;2023-02-10T03:04:47;2.20;93.90
77829;DHT22;67019;51.034;3.728;2023-02-10T03:07:15;2.60;93.50
77829;DHT22;67019;51.034;3.728;2023-02-10T03:09:42;2.50;93.20
77829;DHT22;67019;51.034;3.728;2023-02-10T03:12:10;2.00;95.40
77829;DHT22;67019;51.034;3.728;2023-02-10T03:14:39;1.80;96.40
77829;DHT22;67019;51.034;3.728;2023-02-10T03:17:07;1.80;96.50
77829;DHT22;67019;51.034;3.728;2023-02-10T03:19:34;1.70;97.30
77829;DHT22;67019;51.034;3.728;2023-02-10T03:22:02;1.80;97.40
77829;DHT22;67019;51.034;3.728;2023-02-10T03:24:29;2.20;97.30
77829;DHT22;67019;51.034;3.728;2023-02-10T03:26:57;2.10;96.30
77829;DHT22;67019;51.034;3.728;2023-02-10T03:29:25;2.40;96.30
77829;DHT22;67019;51.034;3.728;2023-02-10T03:31:53;2.20;95.60
77829;DHT22;67019;51.034;3.728;2023-02-10T03:34:21;2.20;95.60
77829;DHT22;67019;51.034;3.728;2023-02-10T03:36:50;2.80;95.40
77829;DHT22;67019;51.034;3.728;2023-02-10T03:39:18;2.40;94.70
77829;DHT22;67019;51.034;3.728;2023-02-10T03:41:45;2.30;94.50
77829;DHT22;67019;51.034;3.728;2023-02-10T03:44:13;2.40;94.30
77829;DHT22;67019;51.034;3.728;2023-02-10T03:46:41;2.40;94.10
77829;DHT22;67019;51.034;3.728;2023-02-10T03:49:08;2.70;93.30
77829;DHT22;67019;51.034;3.728;2023-02-10T03:51:36;2.40;93.80
77829;DHT22;67019;51.034;3.728;2023-02-10T03:54:04;2.30;94.30
77829;DHT22;67019;51.034;3.728;2023-02-10T03:56:32;3.10;95.10
77829;DHT22;67019;51.034;3.728;2023-02-10T03:59:03;2.00;99.90
77829;DHT22;67019;51.034;3.728;2023-02-10T04:01:32;1.80;97.30
77829;DHT22;67019;51.034;3.728;2023-02-10T04:04:00;1.80;97.70
77829;DHT22;67019;51.034;3.728;2023-02-10T04:06:28;1.80;97.80
77829;DHT22;67019;51.034;3.728;2023-02-10T04:08:55;1.80;98.30
77829;DHT22;67019;51.034;3.728;2023-02-10T04:11:23;1.90;98.30
77829;DHT22;67019;51.034;3.728;2023-02-10T04:13:51;2.10;98.00
77829;DHT22;67019;51.034;3.728;2023-02-10T04:16:18;2.50;97.50
77829;DHT22;67019;51.034;3.728;2023-02-10T04:18:48;3.00;95.50
77829;DHT22;67019;51.034;3.728;2023-02-10T04:21:16;2.90;95.10
77829;DHT22;67019;51.034;3.728;2023-02-10T04:23:43;2.60;95.30
77829;DHT22;67019;51.034;3.728;2023-02-10T04:26:11;2.30;95.80
77829;DHT22;67019;51.034;3.728;2023-02-10T04:28:39;2.10;96.60
77829;DHT22;67019;51.034;3.728;2023-02-10T04:31:06;2.10;97.00
77829;DHT22;67019;51.034;3.728;2023-02-10T04:33:36;2.10;97.30
77829;DHT22;67019;51.034;3.728;2023-02-10T04:36:04;2.00;97.40
77829;DHT22;67019;51.034;3.728;2023-02-10T04:38:32;2.10;97.60
77829;DHT22;67019;51.034;3.728;2023-02-10T04:41:00;2.10;97.30
77829;DHT22;67019;51.034;3.728;2023-02-10T04:43:29;2.20;97.30
77829;DHT22;67019;51.034;3.728;2023-02-10T04:45:57;2.30;99.00
77829;DHT22;67019;51.034;3.728;2023-02-10T04:48:24;2.30;96.30
77829;DHT22;67019;51.034;3.728;2023-02-10T04:50:52;2.30;96.80
77829;DHT22;67019;51.034;3.728;2023-02-10T04:53:20;2.40;96.60
77829;DHT22;67019;51.034;3.728;2023-02-10T04:55:49;2.40;96.70
77829;DHT22;67019;51.034;3.728;2023-02-10T04:58:17;2.60;96.10
77829;DHT22;67019;51.034;3.728;2023-02-10T05:00:45;2.50;95.40
77829;DHT22;67019;51.034;3.728;2023-02-10T05:03:13;2.70;97.00
77829;DHT22;67019;51.034;3.728;2023-02-10T05:05:40;2.80;94.30
77829;DHT22;67019;51.034;3.728;2023-02-10T05:08:08;2.50;94.80
77829;DHT22;67019;51.034;3.728;2023-02-10T05:10:35;2.70;98.80
77829;DHT22;67019;51.034;3.728;2023-02-10T05:13:03;2.50;96.10
77829;DHT22;67019;51.034;3.728;2023-02-10T05:15:31;2.60;95.70
77829;DHT22;67019;51.034;3.728;2023-02-10T05:17:59;2.30;96.50
77829;DHT22;67019;51.034;3.728;2023-02-10T05:20:26;2.10;99.90
77829;DHT22;67019;51.034;3.728;2023-02-10T05:22:54;2.10;97.50
77829;DHT22;67019;51.034;3.728;2023-02-10T05:25:21;2.20;99.90
77829;DHT22;67019;51.034;3.728;2023-02-10T05:27:49;2.30;97.80
77829;DHT22;67019;51.034;3.728;2023-02-10T05:30:17;2.80;97.20
77829;DHT22;67019;51.034;3.728;2023-02-10T05:32:45;3.20;95.10
77829;DHT22;67019;51.034;3.728;2023-02-10T05:35:12;3.00;94.90
77829;DHT22;67019;51.034;3.728;2023-02-10T05:37:40;2.90;95.30
77829;DHT22;67019;51.034;3.728;2023-02-10T05:40:08;3.20;94.40
77829;DHT22;67019;51.034;3.728;2023-02-10T05:42:36;3.20;93.60
77829;DHT22;67019;51.034;3.728;2023-02-10T05:45:03;3.20;93.30
77829;DHT22;67019;51.034;3.728;2023-02-10T05:47:31;3.20;93.20
77829;DHT22;67019;51.034;3.728;2023-02-10T05:49:59;3.10;94.00
77829;DHT22;67019;51.034;3.728;2023-02-10T05:52:26;2.60;94.70
77829;DHT22;67019;51.034;3.728;2023-02-10T05:54:54;2.50;95.30
77829;DHT22;67019;51.034;3.728;2023-02-10T05:57:21;2.80;94.90
77829;DHT22;67019;51.034;3.728;2023-02-10T05:59:49;2.90;94.60
77829;DHT22;67019;51.034;3.728;2023-02-10T06:02:17;2.80;94.30
77829;DHT22;67019;51.034;3.728;2023-02-10T06:04:44;2.00;94.30
77829;DHT22;67019;51.034;3.728;2023-02-10T06:07:12;2.60;94.60
77829;DHT22;67019;51.034;3.728;2023-02-10T06:09:40;2.80;94.20
77829;DHT22;67019;51.034;3.728;2023-02-10T06:12:07;2.80;94.50
77829;DHT22;67019;51.034;3.728;2023-02-10T06:14:35;2.90;93.90
77829;DHT22;67019;51.034;3.728;2023-02-10T06:17:06;2.70;93.80
77829;DHT22;67019;51.034;3.728;2023-02-10T06:19:36;2.80;93.70
77829;DHT22;67019;51.034;3.728;2023-02-10T06:22:04;2.60;93.80
77829;DHT22;67019;51.034;3.728;2023-02-10T06:24:32;2.60;94.00
77829;DHT22;67019;51.034;3.728;2023-02-10T06:27:00;2.40;94.20
77829;DHT22;67019;51.034;3.728;2023-02-10T06:29:28;2.10;94.70
77829;DHT22;67019;51.034;3.728;2023-02-10T06:31:55;2.40;95.00
77829;DHT22;67019;51.034;3.728;2023-02-10T06:34:23;2.50;94.40
77829;DHT22;67019;51.034;3.728;2023-02-10T06:36:51;2.50;94.40
77829;DHT22;67019;51.034;3.728;2023-02-10T06:39:18;2.00;95.80
77829;DHT22;67019;51.034;3.728;2023-02-10T06:41:47;1.90;96.20
77829;DHT22;67019;51.034;3.728;2023-02-10T06:44:14;1.40;99.70
77829;DHT22;67019;51.034;3.728;2023-02-10T06:46:43;1.70;97.10
77829;DHT22;67019;51.034;3.728;2023-02-10T06:49:11;1.80;96.80
77829;DHT22;67019;51.034;3.728;2023-02-10T06:51:38;2.20;97.00
77829;DHT22;67019;51.034;3.728;2023-02-10T06:54:06;2.10;96.20
77829;DHT22;67019;51.034;3.728;2023-02-10T06:56:35;2.10;95.70
77829;DHT22;67019;51.034;3.728;2023-02-10T06:59:03;2.20;95.40
77829;DHT22;67019;51.034;3.728;2023-02-10T07:01:30;2.10;95.50
77829;DHT22;67019;51.034;3.728;2023-02-10T07:03:58;2.10;95.80
77829;DHT22;67019;51.034;3.728;2023-02-10T07:06:26;2.40;95.80
77829;DHT22;67019;51.034;3.728;2023-02-10T07:08:53;2.40;95.90
77829;DHT22;67019;51.034;3.728;2023-02-10T07:11:21;2.10;96.10
77829;DHT22;67019;51.034;3.728;2023-02-10T07:13:50;1.70;96.80
77829;DHT22;67019;51.034;3.728;2023-02-10T07:16:18;2.00;97.30
77829;DHT22;67019;51.034;3.728;2023-02-10T07:18:45;1.90;97.40
77829;DHT22;67019;51.034;3.728;2023-02-10T07:21:13;2.10;97.60
77829;DHT22;67019;51.034;3.728;2023-02-10T07:23:41;2.60;96.70
77829;DHT22;67019;51.034;3.728;2023-02-10T07:26:08;2.70;95.90
77829;DHT22;67019;51.034;3.728;2023-02-10T07:28:38;2.70;96.20
77829;DHT22;67019;51.034;3.728;2023-02-10T07:31:06;2.60;96.10
77829;DHT22;67019;51.034;3.728;2023-02-10T07:33:33;2.30;97.10
77829;DHT22;67019;51.034;3.728;2023-02-10T07:36:02;2.30;97.50
77829;DHT22;67019;51.034;3.728;2023-02-10T07:38:31;2.30;97.50
77829;DHT22;67019;51.034;3.728;2023-02-10T07:40:59;1.50;97.40
77829;DHT22;67019;51.034;3.728;2023-02-10T07:43:27;2.40;97.70
77829;DHT22;67019;51.034;3.728;2023-02-10T07:45:54;2.50;97.50
77829;DHT22;67019;51.034;3.728;2023-02-10T07:48:22;2.60;97.40
77829;DHT22;67019;51.034;3.728;2023-02-10T07:50:50;2.60;97.10
77829;DHT22;67019;51.034;3.728;2023-02-10T07:53:19;2.80;97.10
77829;DHT22;67019;51.034;3.728;2023-02-10T07:55:47;2.80;97.00
77829;DHT22;67019;51.034;3.728;2023-02-10T07:58:15;2.90;96.60
77829;DHT22;67019;51.034;3.728;2023-02-10T08:00:43;2.90;96.60
77829;DHT22;67019;51.034;3.728;2023-02-10T08:03:14;2.90;96.70
77829;DHT22;67019;51.034;3.728;2023-02-10T08:05:42;2.90;96.90
77829;DHT22;67019;51.034;3.728;2023-02-10T08:08:10;3.40;96.10
77829;DHT22;67019;51.034;3.728;2023-02-10T08:10:38;3.80;94.50
77829;DHT22;67019;51.034;3.728;2023-02-10T08:13:06;3.70;94.30
77829;DHT22;67019;51.034;3.728;2023-02-10T08:15:34;3.70;94.60
77829;DHT22;67019;51.034;3.728;2023-02-10T08:18:01;3.50;94.70
77829;DHT22;67019;51.034;3.728;2023-02-10T08:20:29;3.80;94.90
77829;DHT22;67019;51.034;3.728;2023-02-10T08:22:57;3.60;94.80
77829;DHT22;67019;51.034;3.728;2023-02-10T08:25:28;3.40;95.40
77829;DHT22;67019;51.034;3.728;2023-02-10T08:27:55;3.90;94.50
77829;DHT22;67019;51.034;3.728;2023-02-10T08:30:24;3.70;94.40
77829;DHT22;67019;51.034;3.728;2023-02-10T08:32:53;3.40;95.70
77829;DHT22;67019;51.034;3.728;2023-02-10T08:35:20;3.40;95.90
77829;DHT22;67019;51.034;3.728;2023-02-10T08:37:48;3.40;96.00
77829;DHT22;67019;51.034;3.728;2023-02-10T08:40:16;3.50;95.80
77829;DHT22;67019;51.034;3.728;2023-02-10T08:42:44;3.40;96.00
77829;DHT22;67019;51.034;3.728;2023-02-10T08:45:11;3.40;96.50
77829;DHT22;67019;51.034;3.728;2023-02-10T08:47:39;3.60;96.40
77829;DHT22;67019;51.034;3.728;2023-02-10T08:50:07;3.80;95.80
77829;DHT22;67019;51.034;3.728;2023-02-10T08:52:34;3.60;96.20
77829;DHT22;67019;51.034;3.728;2023-02-10T08:55:02;3.30;97.60
77829;DHT22;67019;51.034;3.728;2023-02-10T08:57:30;3.50;97.10
77829;DHT22;67019;51.034;3.728;2023-02-10T08:59:58;3.50;97.10
77829;DHT22;67019;51.034;3.728;2023-02-10T09:02:26;3.20;97.70
77829;DHT22;67019;51.034;3.728;2023-02-10T09:04:53;3.40;99.90
77829;DHT22;67019;51.034;3.728;2023-02-10T09:07:21;3.30;98.20
77829;DHT22;67019;51.034;3.728;2023-02-10T09:09:50;3.40;98.00
77829;DHT22;67019;51.034;3.728;2023-02-10T09:12:17;3.50;98.20
77829;DHT22;67019;51.034;3.728;2023-02-10T09:14:45;3.70;97.90
77829;DHT22;67019;51.034;3.728;2023-02-10T09:17:13;3.70;98.10
77829;DHT22;67019;51.034;3.728;2023-02-10T09:19:40;3.60;98.60
77829;DHT22;67019;51.034;3.728;2023-02-10T09:22:08;3.60;98.60
77829;DHT22;67019;51.034;3.728;2023-02-10T09:24:35;3.80;98.40
77829;DHT22;67019;51.034;3.728;2023-02-10T09:27:03;4.20;97.50
77829;DHT22;67019;51.034;3.728;2023-02-10T09:29:31;4.00;98.00
77829;DHT22;67019;51.034;3.728;2023-02-10T09:31:58;4.10;98.10
77829;DHT22;67019;51.034;3.728;2023-02-10T09:34:26;4.10;98.40
77829;DHT22;67019;51.034;3.728;2023-02-10T09:36:56;4.20;98.20
77829;DHT22;67019;51.034;3.728;2023-02-10T09:39:25;4.10;98.30
77829;DHT22;67019;51.034;3.728;2023-02-10T09:41:56;3.70;99.40
77829;DHT22;67019;51.034;3.728;2023-02-10T09:44:33;3.60;99.90
77829;DHT22;67019;51.034;3.728;2023-02-10T09:54:57;4.00;99.90
77829;DHT22;67019;51.034;3.728;2023-02-10T09:57:45;4.10;99.90
77829;DHT22;67019;51.034;3.728;2023-02-10T10:00:29;4.30;99.90
77829;DHT22;67019;51.034;3.728;2023-02-10T10:02:57;4.50;99.90
77829;DHT22;67019;51.034;3.728;2023-02-10T10:05:36;4.30;99.90
77829;DHT22;67019;51.034;3.728;2023-02-10T10:08:00;4.30;99.90
77829;DHT22;67019;51.034;3.728;2023-02-10T10:10:34;4.40;99.90
77829;DHT22;67019;51.034;3.728;2023-02-10T10:12:58;4.40;99.90
77829;DHT22;67019;51.034;3.728;2023-02-10T10:15:31;4.40;99.90
77829;DHT22;67019;51.034;3.728;2023-02-10T10:18:12;4.50;99.90
77829;DHT22;67019;51.034;3.728;2023-02-10T10:23:28;4.50;99.90
77829;DHT22;67019;51.034;3.728;2023-02-10T10:31:32;4.90;99.90
77829;DHT22;67019;51.034;3.728;2023-02-10T10:36:43;5.30;98.20
77829;DHT22;67019;51.034;3.728;2023-02-10T10:39:52;5.40;98.40
77829;DHT22;67019;51.034;3.728;2023-02-10T10:41:36;5.40;97.70
77829;DHT22;67019;51.034;3.728;2023-02-10T10:44:04;5.20;98.00
77829;DHT22;67019;51.034;3.728;2023-02-10T10:49:11;5.50;96.90
77829;DHT22;67019;51.034;3.728;2023-02-10T10:51:39;5.40;97.70
77829;DHT22;67019;51.034;3.728;2023-02-10T10:54:10;5.50;97.80
77829;DHT22;67019;51.034;3.728;2023-02-10T10:56:42;5.70;97.10
77829;DHT22;67019;51.034;3.728;2023-02-10T11:01:41;5.70;96.70
77829;DHT22;67019;51.034;3.728;2023-02-10T11:04:14;5.50;97.30
77829;DHT22;67019;51.034;3.728;2023-02-10T11:06:50;5.70;97.00
77829;DHT22;67019;51.034;3.728;2023-02-10T11:09:35;5.70;96.80
77829;DHT22;67019;51.034;3.728;2023-02-10T11:12:15;5.90;96.50
77829;DHT22;67019;51.034;3.728;2023-02-10T11:14:44;6.20;95.70
77829;DHT22;67019;51.034;3.728;2023-02-10T11:17:35;5.90;96.30
77829;DHT22;67019;51.034;3.728;2023-02-10T11:22:42;6.00;96.00
77829;DHT22;67019;51.034;3.728;2023-02-10T11:27:54;5.80;96.50
77829;DHT22;67019;51.034;3.728;2023-02-10T11:30:35;5.80;96.60
77829;DHT22;67019;51.034;3.728;2023-02-10T11:32:59;5.90;95.90
77829;DHT22;67019;51.034;3.728;2023-02-10T11:35:28;3.50;95.60
77829;DHT22;67019;51.034;3.728;2023-02-10T11:38:06;5.80;96.30
77829;DHT22;67019;51.034;3.728;2023-02-10T11:40:55;6.10;95.70
77829;DHT22;67019;51.034;3.728;2023-02-10T11:43:28;6.50;94.50
77829;DHT22;67019;51.034;3.728;2023-02-10T11:46:03;6.50;94.60
77829;DHT22;67019;51.034;3.728;2023-02-10T11:48:30;6.40;95.30
77829;DHT22;67019;51.034;3.728;2023-02-10T11:51:34;6.40;95.50
77829;DHT22;67019;51.034;3.728;2023-02-10T11:53:37;6.30;95.20
77829;DHT22;67019;51.034;3.728;2023-02-10T11:59:02;6.70;94.70
77829;DHT22;67019;51.034;3.728;2023-02-10T12:01:44;6.70;94.50
77829;DHT22;67019;51.034;3.728;2023-02-10T12:09:55;6.80;94.30
77829;DHT22;67019;51.034;3.728;2023-02-10T12:21:16;7.10;93.50
77829;DHT22;67019;51.034;3.728;2023-02-10T12:23:51;7.20;92.80
77829;DHT22;67019;51.034;3.728;2023-02-10T12:26:52;7.40;92.40
77829;DHT22;67019;51.034;3.728;2023-02-10T12:29:30;7.40;92.60
77829;DHT22;67019;51.034;3.728;2023-02-10T12:46:29;7.10;92.60
77829;DHT22;67019;51.034;3.728;2023-02-10T12:51:51;7.10;92.50
77829;DHT22;67019;51.034;3.728;2023-02-10T12:54:23;6.80;93.50
77829;DHT22;67019;51.034;3.728;2023-02-10T12:56:57;6.90;93.60
77829;DHT22;67019;51.034;3.728;2023-02-10T13:01:59;7.00;93.00
77829;DHT22;67019;51.034;3.728;2023-02-10T13:04:32;7.40;93.40
77829;DHT22;67019;51.034;3.728;2023-02-10T13:07:07;7.10;92.80
77829;DHT22;67019;51.034;3.728;2023-02-10T13:12:34;7.90;90.60
77829;DHT22;67019;51.034;3.728;2023-02-10T13:15:12;6.80;89.00
77829;DHT22;67019;51.034;3.728;2023-02-10T13:17:36;8.60;89.50
77829;DHT22;67019;51.034;3.728;2023-02-10T13:20:04;8.80;87.80
77829;DHT22;67019;51.034;3.728;2023-02-10T13:25:27;8.00;89.80
77829;DHT22;67019;51.034;3.728;2023-02-10T13:33:44;8.30;87.20
77829;DHT22;67019;51.034;3.728;2023-02-10T13:36:15;8.60;87.00
77829;DHT22;67019;51.034;3.728;2023-02-10T13:38:43;8.70;85.40
77829;DHT22;67019;51.034;3.728;2023-02-10T13:41:26;8.60;86.60
77829;DHT22;67019;51.034;3.728;2023-02-10T13:44:23;8.40;87.60
77829;DHT22;67019;51.034;3.728;2023-02-10T13:46:52;8.20;88.20
77829;DHT22;67019;51.034;3.728;2023-02-10T13:49:18;8.10;89.20
77829;DHT22;67019;51.034;3.728;2023-02-10T13:51:46;8.30;88.10
77829;DHT22;67019;51.034;3.728;2023-02-10T13:54:31;8.20;89.90
77829;DHT22;67019;51.034;3.728;2023-02-10T13:56:59;8.40;88.20
77829;DHT22;67019;51.034;3.728;2023-02-10T13:59:36;8.30;89.50
77829;DHT22;67019;51.034;3.728;2023-02-10T14:02:18;8.20;88.80
77829;DHT22;67019;51.034;3.728;2023-02-10T14:04:54;8.40;88.50
77829;DHT22;67019;51.034;3.728;2023-02-10T14:12:36;8.50;86.40
77829;DHT22;67019;51.034;3.728;2023-02-10T14:15:19;8.70;86.10
77829;DHT22;67019;51.034;3.728;2023-02-10T14:17:55;8.90;84.10
77829;DHT22;67019;51.034;3.728;2023-02-10T14:20:33;8.30;86.30
77829;DHT22;67019;51.034;3.728;2023-02-10T14:23:01;8.10;86.80
77829;DHT22;67019;51.034;3.728;2023-02-10T14:25:35;8.00;87.80
77829;DHT22;67019;51.034;3.728;2023-02-10T14:28:03;8.20;87.20
77829;DHT22;67019;51.034;3.728;2023-02-10T14:30:39;8.40;86.60
77829;DHT22;67019;51.034;3.728;2023-02-10T14:33:24;8.30;86.60
77829;DHT22;67019;51.034;3.728;2023-02-10T14:35:52;8.40;86.40
77829;DHT22;67019;51.034;3.728;2023-02-10T14:38:32;8.50;86.50
77829;DHT22;67019;51.034;3.728;2023-02-10T14:40:58;8.60;85.00
77829;DHT22;67019;51.034;3.728;2023-02-10T14:43:28;8.50;85.60
77829;DHT22;67019;51.034;3.728;2023-02-10T14:45:58;8.60;85.10
77829;DHT22;67019;51.034;3.728;2023-02-10T14:48:27;8.70;84.20
77829;DHT22;67019;51.034;3.728;2023-02-10T14:51:06;8.70;84.20
77829;DHT22;67019;51.034;3.728;2023-02-10T14:53:36;8.70;83.40
77829;DHT22;67019;51.034;3.728;2023-02-10T14:56:12;9.10;81.60
77829;DHT22;67019;51.034;3.728;2023-02-10T14:58:35;8.80;82.50
77829;DHT22;67019;51.034;3.728;2023-02-10T15:01:24;8.70;83.90
77829;DHT22;67019;51.034;3.728;2023-02-10T15:03:52;9.00;82.70
77829;DHT22;67019;51.034;3.728;2023-02-10T15:06:27;8.90;83.70
77829;DHT22;67019;51.034;3.728;2023-02-10T15:09:10;8.80;84.10
77829;DHT22;67019;51.034;3.728;2023-02-10T15:11:43;9.00;84.20
77829;DHT22;67019;51.034;3.728;2023-02-10T15:14:16;8.50;85.40
77829;DHT22;67019;51.034;3.728;2023-02-10T15:16:42;8.70;85.30
77829;DHT22;67019;51.034;3.728;2023-02-10T15:19:15;8.90;84.60
77829;DHT22;67019;51.034;3.728;2023-02-10T15:21:45;8.70;84.70
77829;DHT22;67019;51.034;3.728;2023-02-10T15:24:27;8.50;86.10
77829;DHT22;67019;51.034;3.728;2023-02-10T15:26:56;8.20;86.50
77829;DHT22;67019;51.034;3.728;2023-02-10T15:29:24;8.50;86.90
77829;DHT22;67019;51.034;3.728;2023-02-10T15:31:55;8.40;87.20
77829;DHT22;67019;51.034;3.728;2023-02-10T15:37:13;8.60;87.40
77829;DHT22;67019;51.034;3.728;2023-02-10T15:39:28;8.50;87.10
77829;DHT22;67019;51.034;3.728;2023-02-10T15:41:58;8.60;86.70
77829;DHT22;67019;51.034;3.728;2023-02-10T15:44:38;8.90;85.70
77829;DHT22;67019;51.034;3.728;2023-02-10T15:49:55;8.80;86.50
77829;DHT22;67019;51.034;3.728;2023-02-10T15:52:30;8.60;87.30
77829;DHT22;67019;51.034;3.728;2023-02-10T15:55:00;8.60;87.20
77829;DHT22;67019;51.034;3.728;2023-02-10T15:57:27;8.70;87.10
77829;DHT22;67019;51.034;3.728;2023-02-10T15:59:55;8.60;88.00
77829;DHT22;67019;51.034;3.728;2023-02-10T16:02:23;8.90;86.10
77829;DHT22;67019;51.034;3.728;2023-02-10T16:04:54;8.80;86.10
77829;DHT22;67019;51.034;3.728;2023-02-10T16:07:26;8.40;89.20
77829;DHT22;67019;51.034;3.728;2023-02-10T16:09:54;8.20;89.50
77829;DHT22;67019;51.034;3.728;2023-02-10T16:12:23;8.10;90.00
77829;DHT22;67019;51.034;3.728;2023-02-10T16:14:51;8.10;89.70
77829;DHT22;67019;51.034;3.728;2023-02-10T16:17:25;8.30;88.80
77829;DHT22;67019;51.034;3.728;2023-02-10T16:19:54;8.30;88.60
77829;DHT22;67019;51.034;3.728;2023-02-10T16:22:22;8.20;89.30
77829;DHT22;67019;51.034;3.728;2023-02-10T16:24:50;8.00;90.30
77829;DHT22;67019;51.034;3.728;2023-02-10T16:27:18;8.30;89.50
77829;DHT22;67019;51.034;3.728;2023-02-10T16:29:46;8.20;89.00
77829;DHT22;67019;51.034;3.728;2023-02-10T16:32:14;8.00;90.10
77829;DHT22;67019;51.034;3.728;2023-02-10T16:34:41;7.80;90.50
77829;DHT22;67019;51.034;3.728;2023-02-10T16:37:16;7.80;90.70
77829;DHT22;67019;51.034;3.728;2023-02-10T16:39:39;7.70;91.00
77829;DHT22;67019;51.034;3.728;2023-02-10T16:42:07;7.80;90.90
77829;DHT22;67019;51.034;3.728;2023-02-10T16:44:37;7.60;91.10
77829;DHT22;67019;51.034;3.728;2023-02-10T16:47:04;7.50;91.60
77829;DHT22;67019;51.034;3.728;2023-02-10T16:49:32;7.40;91.60
77829;DHT22;67019;51.034;3.728;2023-02-10T16:51:59;7.30;92.10
77829;DHT22;67019;51.034;3.728;2023-02-10T16:54:27;7.20;92.30
77829;DHT22;67019;51.034;3.728;2023-02-10T16:56:55;7.10;92.20
77829;DHT22;67019;51.034;3.728;2023-02-10T16:59:23;7.00;92.50
77829;DHT22;67019;51.034;3.728;2023-02-10T17:01:51;7.10;92.20
77829;DHT22;67019;51.034;3.728;2023-02-10T17:04:18;7.00;92.10
77829;DHT22;67019;51.034;3.728;2023-02-10T17:06:48;7.00;92.10
77829;DHT22;67019;51.034;3.728;2023-02-10T17:09:22;6.90;92.20
77829;DHT22;67019;51.034;3.728;2023-02-10T17:11:46;6.90;92.10
77829;DHT22;67019;51.034;3.728;2023-02-10T17:14:15;6.90;92.10
77829;DHT22;67019;51.034;3.728;2023-02-10T17:16:45;7.00;91.60
77829;DHT22;67019;51.034;3.728;2023-02-10T17:19:14;7.00;91.40
77829;DHT22;67019;51.034;3.728;2023-02-10T17:21:42;7.00;91.30
77829;DHT22;67019;51.034;3.728;2023-02-10T17:24:10;6.90;91.40
77829;DHT22;67019;51.034;3.728;2023-02-10T17:26:38;6.80;91.30
77829;DHT22;67019;51.034;3.728;2023-02-10T17:29:08;6.90;90.80
77829;DHT22;67019;51.034;3.728;2023-02-10T17:31:36;7.00;90.10
77829;DHT22;67019;51.034;3.728;2023-02-10T17:34:03;6.90;89.40
77829;DHT22;67019;51.034;3.728;2023-02-10T17:36:32;6.90;89.50
77829;DHT22;67019;51.034;3.728;2023-02-10T17:39:00;7.00;88.50
77829;DHT22;67019;51.034;3.728;2023-02-10T17:41:29;7.00;88.60
77829;DHT22;67019;51.034;3.728;2023-02-10T17:43:58;7.00;88.10
77829;DHT22;67019;51.034;3.728;2023-02-10T17:46:27;6.90;88.40
77829;DHT22;67019;51.034;3.728;2023-02-10T17:48:54;7.00;88.00